CheckWX is a tool to help pilots better visualize weather data.  It is not intended as a substitute for an official pre-flight weather briefing.

00:28:43 UTC

KCMA TAF
Camarillo Airport
Camarillo, California, USA
KCMA 192337Z 2000/2024 07012KT P6SM BKN200 FM200300 07007KT P6SM OVC200 FM202000 23006KT P6SM OVC100

Jan-20@
00:00 UTC

Jan-20 @ 00:00 UTC

Jan-20@
03:00 UTC

Jan-20 @ 03:00 UTC

KCMA 192337Z 2000/2024 07012KT P6SM BKN200
Wind
  • 070° at 12 KTS
Cloud Levels
  • Broken at 20,000' AGL

Jan-20@
03:00 UTC

Jan-20 @ 03:00 UTC

Jan-20@
20:00 UTC

Jan-20 @ 20:00 UTC

FM200300 07007KT P6SM OVC200

From

From Standard forecast or significant change

Wind
  • 070° at 7 KTS
Cloud Levels
  • Overcast at 20,000' AGL

Jan-20@
20:00 UTC

Jan-20 @ 20:00 UTC

Jan-21@
00:00 UTC

Jan-21 @ 00:00 UTC

FM202000 23006KT P6SM OVC100

From

From Standard forecast or significant change

Wind
  • 230° at 6 KTS
Cloud Levels
  • Overcast at 10,000' AGL